Portada
METAR-TAF:

METAR-TAF

Aeroports :

Kupang, Indonèsia

latitud: 10-10-17S, longitud: 123-40-16E, altitud: 102 m

Observació

L'informe es va fer fa 1 hora i 14 minuts, a les 23:30 UTC
Vent 1 kt del Nord
Temperatura 28°C
Humitat 84%
Pressió 1012 hPa
Visibilitat 10 km o més
Escasses núvols a una alçada de 2000 ft

METAR: WATT 012330Z 01001KT 9999 FEW020 28/25 Q1012 NOSIG

Hora: 07:44 (00:44 UTC)

Pronòstic

L'informe es va fer fa 1 hora i 44 minuts, a les 23:00 UTC
Pronòstic vàlid del 02 a les 00 UTC al 02 a les 24 UTC
Vent 8 kt del Est/Sud-Est
Visibilitat 10 km o més
Escasses núvols a una alçada de 1700 ft
Probabilitat 40% :
Temporalment
l' 02 a les 06 UTC al 02 a les 09 UTC
Vent 12 kt del Oest/Nord-Oest
Visibilitat: 4000 m
Escasses núvols a una alçada de 1500 ft, Cumulonimbus.
Cel ennuvolat a una alçada de 1600 ft
pluja

TAF: WATT 012300Z 0200/0224 12008KT 9999 FEW017 PROB40 TEMPO 0206/0209 30012KT 4000 -RA FEW015CB BKN016

Observacions i pronòstics meteorològics de més de 4000 aeroports (METAR i TAF).

Les estacions disponibles són els punts grocs i vermells al mapa.

Posi el ratolí al punt desitjat per veure el nom de l'estació.

Feu clic per veure les observacions i els pronòstics meteorològics.

Per canviar el mapa: feu clic els botons verds amb una creu de color negre per apropar; al botó verd amb un guió per allunyar la imatge; o en les fletxes verdes per a mapes adjacents.


METAR-TAF: